sensor_id;sensor_type;location;lat;lon;timestamp;pressure;altitude;pressure_sealevel;temperature;humidity
9462;BME280;4769;42.660;23.262;2023-06-04T00:00:09;94146.75;;;17.89;100.00
9462;BME280;4769;42.660;23.262;2023-06-04T00:02:35;94144.28;;;17.98;100.00
9462;BME280;4769;42.660;23.262;2023-06-04T00:05:01;94153.53;;;18.05;100.00
9462;BME280;4769;42.660;23.262;2023-06-04T00:07:26;94150.19;;;18.13;100.00
9462;BME280;4769;42.660;23.262;2023-06-04T00:09:53;94149.63;;;18.16;100.00
9462;BME280;4769;42.660;23.262;2023-06-04T00:12:21;94140.94;;;18.06;100.00
9462;BME280;4769;42.660;23.262;2023-06-04T00:14:47;94138.06;;;18.02;100.00
9462;BME280;4769;42.660;23.262;2023-06-04T00:17:12;94135.88;;;18.09;100.00
9462;BME280;4769;42.660;23.262;2023-06-04T00:19:39;94137.84;;;17.99;100.00
9462;BME280;4769;42.660;23.262;2023-06-04T00:22:05;94141.75;;;18.06;100.00
9462;BME280;4769;42.660;23.262;2023-06-04T00:24:31;94138.53;;;18.09;100.00
9462;BME280;4769;42.660;23.262;2023-06-04T00:26:56;94139.25;;;18.15;100.00
9462;BME280;4769;42.660;23.262;2023-06-04T00:29:25;94145.03;;;18.22;100.00
9462;BME280;4769;42.660;23.262;2023-06-04T00:31:50;94136.38;;;18.30;100.00
9462;BME280;4769;42.660;23.262;2023-06-04T00:34:17;94136.38;;;18.35;100.00
9462;BME280;4769;42.660;23.262;2023-06-04T00:36:43;94122.81;;;18.26;100.00
9462;BME280;4769;42.660;23.262;2023-06-04T00:39:09;94130.63;;;18.23;100.00
9462;BME280;4769;42.660;23.262;2023-06-04T00:41:34;94126.63;;;18.20;100.00
9462;BME280;4769;42.660;23.262;2023-06-04T00:44:00;94138.97;;;18.16;100.00
9462;BME280;4769;42.660;23.262;2023-06-04T00:46:29;94129.16;;;18.12;100.00
9462;BME280;4769;42.660;23.262;2023-06-04T00:48:55;94132.59;;;18.12;100.00
9462;BME280;4769;42.660;23.262;2023-06-04T00:51:21;94133.19;;;18.09;100.00
9462;BME280;4769;42.660;23.262;2023-06-04T00:53:48;94132.09;;;18.10;100.00
9462;BME280;4769;42.660;23.262;2023-06-04T00:56:13;94123.31;;;18.10;100.00
9462;BME280;4769;42.660;23.262;2023-06-04T00:58:39;94121.16;;;18.12;100.00
9462;BME280;4769;42.660;23.262;2023-06-04T01:01:08;94129.09;;;18.17;100.00
9462;BME280;4769;42.660;23.262;2023-06-04T01:03:42;94128.91;;;18.08;100.00
9462;BME280;4769;42.660;23.262;2023-06-04T01:06:16;94123.16;;;18.01;100.00
9462;BME280;4769;42.660;23.262;2023-06-04T01:08:43;94131.59;;;18.08;100.00
9462;BME280;4769;42.660;23.262;2023-06-04T01:11:09;94121.94;;;18.12;100.00
9462;BME280;4769;42.660;23.262;2023-06-04T01:13:35;94125.47;;;18.08;100.00
9462;BME280;4769;42.660;23.262;2023-06-04T01:16:00;94122.88;;;18.03;100.00
9462;BME280;4769;42.660;23.262;2023-06-04T01:18:27;94131.16;;;18.01;100.00
9462;BME280;4769;42.660;23.262;2023-06-04T01:20:57;94130.13;;;17.97;100.00
9462;BME280;4769;42.660;23.262;2023-06-04T01:23:33;94122.13;;;17.97;100.00
9462;BME280;4769;42.660;23.262;2023-06-04T01:26:03;94122.41;;;17.96;100.00
9462;BME280;4769;42.660;23.262;2023-06-04T01:28:30;94123.16;;;18.01;100.00
9462;BME280;4769;42.660;23.262;2023-06-04T01:30:56;94122.81;;;18.08;100.00
9462;BME280;4769;42.660;23.262;2023-06-04T01:33:23;94133.97;;;18.10;100.00
9462;BME280;4769;42.660;23.262;2023-06-04T01:35:49;94133.91;;;18.15;100.00
9462;BME280;4769;42.660;23.262;2023-06-04T01:38:18;94138.16;;;18.16;100.00
9462;BME280;4769;42.660;23.262;2023-06-04T01:40:43;94136.84;;;18.13;100.00
9462;BME280;4769;42.660;23.262;2023-06-04T01:43:09;94133.41;;;18.13;100.00
9462;BME280;4769;42.660;23.262;2023-06-04T01:45:35;94133.63;;;18.16;100.00
9462;BME280;4769;42.660;23.262;2023-06-04T01:48:02;94141.97;;;18.10;100.00
9462;BME280;4769;42.660;23.262;2023-06-04T01:50:28;94141.28;;;17.99;100.00
9462;BME280;4769;42.660;23.262;2023-06-04T01:52:54;94145.56;;;18.00;100.00
9462;BME280;4769;42.660;23.262;2023-06-04T01:55:22;94147.72;;;17.98;100.00
9462;BME280;4769;42.660;23.262;2023-06-04T01:57:48;94145.84;;;17.99;100.00
9462;BME280;4769;42.660;23.262;2023-06-04T02:00:14;94149.81;;;18.01;100.00
9462;BME280;4769;42.660;23.262;2023-06-04T02:02:42;94151.19;;;17.99;100.00
9462;BME280;4769;42.660;23.262;2023-06-04T02:05:10;94154.34;;;18.01;100.00
9462;BME280;4769;42.660;23.262;2023-06-04T02:07:36;94147.22;;;17.96;100.00
9462;BME280;4769;42.660;23.262;2023-06-04T02:10:02;94156.16;;;17.82;100.00
9462;BME280;4769;42.660;23.262;2023-06-04T02:12:30;94158.72;;;17.68;100.00
9462;BME280;4769;42.660;23.262;2023-06-04T02:14:56;94152.25;;;17.74;100.00
9462;BME280;4769;42.660;23.262;2023-06-04T02:17:22;94158.47;;;17.70;100.00
9462;BME280;4769;42.660;23.262;2023-06-04T02:19:47;94156.78;;;17.74;100.00
9462;BME280;4769;42.660;23.262;2023-06-04T02:22:13;94167.66;;;17.82;100.00
9462;BME280;4769;42.660;23.262;2023-06-04T02:24:40;94170.47;;;17.91;100.00
9462;BME280;4769;42.660;23.262;2023-06-04T02:27:06;94174.00;;;17.86;100.00
9462;BME280;4769;42.660;23.262;2023-06-04T02:29:34;94172.06;;;17.92;100.00
9462;BME280;4769;42.660;23.262;2023-06-04T02:32:00;94174.19;;;17.95;100.00
9462;BME280;4769;42.660;23.262;2023-06-04T02:34:26;94186.72;;;17.94;100.00
9462;BME280;4769;42.660;23.262;2023-06-04T02:36:51;94172.44;;;17.80;100.00
9462;BME280;4769;42.660;23.262;2023-06-04T02:39:18;94180.50;;;17.75;100.00
9462;BME280;4769;42.660;23.262;2023-06-04T02:41:43;94188.78;;;17.74;100.00
9462;BME280;4769;42.660;23.262;2023-06-04T02:44:09;94191.13;;;17.80;100.00
9462;BME280;4769;42.660;23.262;2023-06-04T02:46:37;94184.16;;;17.84;100.00
9462;BME280;4769;42.660;23.262;2023-06-04T02:49:03;94190.06;;;17.81;100.00
9462;BME280;4769;42.660;23.262;2023-06-04T02:51:29;94186.59;;;17.81;100.00
9462;BME280;4769;42.660;23.262;2023-06-04T02:53:55;94197.50;;;17.84;100.00
9462;BME280;4769;42.660;23.262;2023-06-04T02:56:21;94189.81;;;17.78;100.00
9462;BME280;4769;42.660;23.262;2023-06-04T02:58:50;94190.69;;;17.73;100.00
9462;BME280;4769;42.660;23.262;2023-06-04T03:01:18;94197.09;;;17.72;100.00
9462;BME280;4769;42.660;23.262;2023-06-04T03:03:46;94202.31;;;17.82;100.00
9462;BME280;4769;42.660;23.262;2023-06-04T03:06:12;94194.59;;;17.81;100.00
9462;BME280;4769;42.660;23.262;2023-06-04T03:08:37;94201.03;;;17.80;100.00
9462;BME280;4769;42.660;23.262;2023-06-04T03:11:03;94196.72;;;17.79;100.00
9462;BME280;4769;42.660;23.262;2023-06-04T03:13:29;94201.25;;;17.83;100.00
9462;BME280;4769;42.660;23.262;2023-06-04T03:15:55;94198.34;;;17.80;100.00
9462;BME280;4769;42.660;23.262;2023-06-04T03:18:20;94202.31;;;17.82;100.00
9462;BME280;4769;42.660;23.262;2023-06-04T03:20:49;94200.97;;;17.85;100.00
9462;BME280;4769;42.660;23.262;2023-06-04T03:23:15;94202.81;;;17.84;100.00
9462;BME280;4769;42.660;23.262;2023-06-04T03:25:40;94201.19;;;17.88;100.00
9462;BME280;4769;42.660;23.262;2023-06-04T03:28:06;94198.03;;;17.86;100.00
9462;BME280;4769;42.660;23.262;2023-06-04T03:30:32;94205.72;;;17.88;100.00
9462;BME280;4769;42.660;23.262;2023-06-04T03:32:57;94210.78;;;17.89;100.00
9462;BME280;4769;42.660;23.262;2023-06-04T03:35:23;94213.38;;;17.94;100.00
9462;BME280;4769;42.660;23.262;2023-06-04T03:37:51;94211.84;;;17.88;100.00
9462;BME280;4769;42.660;23.262;2023-06-04T03:40:17;94211.59;;;17.90;100.00
9462;BME280;4769;42.660;23.262;2023-06-04T03:42:43;94217.69;;;17.90;100.00
9462;BME280;4769;42.660;23.262;2023-06-04T03:45:09;94216.97;;;17.85;100.00
9462;BME280;4769;42.660;23.262;2023-06-04T03:47:35;94226.22;;;17.92;100.00
9462;BME280;4769;42.660;23.262;2023-06-04T03:50:00;94224.97;;;17.85;100.00
9462;BME280;4769;42.660;23.262;2023-06-04T03:52:26;94220.75;;;17.79;100.00
9462;BME280;4769;42.660;23.262;2023-06-04T03:54:54;94222.91;;;17.77;100.00
9462;BME280;4769;42.660;23.262;2023-06-04T03:57:20;94221.16;;;17.67;100.00
9462;BME280;4769;42.660;23.262;2023-06-04T03:59:46;94219.53;;;17.66;100.00
9462;BME280;4769;42.660;23.262;2023-06-04T04:02:12;94223.19;;;17.75;100.00
9462;BME280;4769;42.660;23.262;2023-06-04T04:04:37;94223.41;;;17.79;100.00
9462;BME280;4769;42.660;23.262;2023-06-04T04:07:03;94228.25;;;17.77;100.00
9462;BME280;4769;42.660;23.262;2023-06-04T04:09:29;94227.03;;;17.93;100.00
9462;BME280;4769;42.660;23.262;2023-06-04T04:11:57;94234.19;;;17.97;100.00
9462;BME280;4769;42.660;23.262;2023-06-04T04:14:23;94236.91;;;17.92;100.00
9462;BME280;4769;42.660;23.262;2023-06-04T04:16:48;94236.19;;;17.82;100.00
9462;BME280;4769;42.660;23.262;2023-06-04T04:19:14;94234.56;;;17.86;100.00
9462;BME280;4769;42.660;23.262;2023-06-04T04:21:40;94235.38;;;17.86;100.00
9462;BME280;4769;42.660;23.262;2023-06-04T04:24:06;94236.94;;;17.87;100.00
9462;BME280;4769;42.660;23.262;2023-06-04T04:26:31;94239.72;;;17.77;100.00
9462;BME280;4769;42.660;23.262;2023-06-04T04:29:00;94235.09;;;17.83;100.00
9462;BME280;4769;42.660;23.262;2023-06-04T04:31:26;94238.09;;;17.81;100.00
9462;BME280;4769;42.660;23.262;2023-06-04T04:33:52;94246.59;;;17.83;100.00
9462;BME280;4769;42.660;23.262;2023-06-04T04:36:18;94249.03;;;17.80;100.00
9462;BME280;4769;42.660;23.262;2023-06-04T04:38:44;94245.44;;;17.89;100.00
9462;BME280;4769;42.660;23.262;2023-06-04T04:41:09;94242.72;;;17.94;100.00
9462;BME280;4769;42.660;23.262;2023-06-04T04:43:36;94251.16;;;18.06;100.00
9462;BME280;4769;42.660;23.262;2023-06-04T04:46:04;94243.44;;;18.05;100.00
9462;BME280;4769;42.660;23.262;2023-06-04T04:48:30;94250.13;;;18.02;100.00
9462;BME280;4769;42.660;23.262;2023-06-04T04:50:56;94245.94;;;17.96;100.00
9462;BME280;4769;42.660;23.262;2023-06-04T04:53:22;94255.69;;;18.06;100.00
9462;BME280;4769;42.660;23.262;2023-06-04T04:55:48;94248.88;;;18.18;100.00
9462;BME280;4769;42.660;23.262;2023-06-04T04:58:14;94255.19;;;18.27;100.00
9462;BME280;4769;42.660;23.262;2023-06-04T05:00:40;94246.59;;;18.35;100.00
9462;BME280;4769;42.660;23.262;2023-06-04T05:03:09;94254.63;;;18.30;100.00
9462;BME280;4769;42.660;23.262;2023-06-04T05:05:34;94254.06;;;18.10;100.00
9462;BME280;4769;42.660;23.262;2023-06-04T05:08:00;94254.47;;;18.22;100.00
9462;BME280;4769;42.660;23.262;2023-06-04T05:10:26;94251.75;;;18.27;100.00
9462;BME280;4769;42.660;23.262;2023-06-04T05:12:52;94257.28;;;18.35;100.00
9462;BME280;4769;42.660;23.262;2023-06-04T05:15:18;94258.75;;;18.46;100.00
9462;BME280;4769;42.660;23.262;2023-06-04T05:17:43;94254.81;;;18.39;100.00
9462;BME280;4769;42.660;23.262;2023-06-04T05:20:12;94262.63;;;18.59;100.00
9462;BME280;4769;42.660;23.262;2023-06-04T05:22:38;94253.53;;;18.60;100.00
9462;BME280;4769;42.660;23.262;2023-06-04T05:25:05;94262.44;;;18.74;100.00
9462;BME280;4769;42.660;23.262;2023-06-04T05:27:31;94262.00;;;18.85;100.00
9462;BME280;4769;42.660;23.262;2023-06-04T05:29:56;94263.59;;;18.86;100.00
9462;BME280;4769;42.660;23.262;2023-06-04T05:32:22;94266.72;;;18.93;100.00
9462;BME280;4769;42.660;23.262;2023-06-04T05:34:48;94267.66;;;19.02;100.00
9462;BME280;4769;42.660;23.262;2023-06-04T05:37:16;94271.19;;;18.98;100.00
9462;BME280;4769;42.660;23.262;2023-06-04T05:39:42;94264.81;;;18.94;100.00
9462;BME280;4769;42.660;23.262;2023-06-04T05:42:08;94280.16;;;19.07;100.00
9462;BME280;4769;42.660;23.262;2023-06-04T05:44:34;94281.03;;;19.21;100.00
9462;BME280;4769;42.660;23.262;2023-06-04T05:46:59;94282.50;;;19.32;100.00
9462;BME280;4769;42.660;23.262;2023-06-04T05:49:25;94283.44;;;19.41;100.00
9462;BME280;4769;42.660;23.262;2023-06-04T05:51:51;94280.63;;;19.32;100.00
9462;BME280;4769;42.660;23.262;2023-06-04T05:54:19;94281.03;;;19.39;100.00
9462;BME280;4769;42.660;23.262;2023-06-04T05:56:45;94282.50;;;19.50;100.00
9462;BME280;4769;42.660;23.262;2023-06-04T05:59:10;94288.25;;;19.57;100.00
9462;BME280;4769;42.660;23.262;2023-06-04T06:01:36;94287.25;;;19.53;100.00
9462;BME280;4769;42.660;23.262;2023-06-04T06:04:02;94283.78;;;19.53;100.00
9462;BME280;4769;42.660;23.262;2023-06-04T06:06:28;94286.22;;;19.68;99.35
9462;BME280;4769;42.660;23.262;2023-06-04T06:08:53;94299.09;;;19.66;99.25
9462;BME280;4769;42.660;23.262;2023-06-04T06:11:21;94293.34;;;19.40;99.91
9462;BME280;4769;42.660;23.262;2023-06-04T06:13:47;94299.25;;;19.37;100.00
9462;BME280;4769;42.660;23.262;2023-06-04T06:16:13;94293.09;;;19.37;100.00
9462;BME280;4769;42.660;23.262;2023-06-04T06:18:39;94296.03;;;19.40;100.00
9462;BME280;4769;42.660;23.262;2023-06-04T06:21:08;94299.31;;;19.51;100.00
9462;BME280;4769;42.660;23.262;2023-06-04T06:23:34;94301.41;;;19.54;100.00
9462;BME280;4769;42.660;23.262;2023-06-04T06:26:00;94289.06;;;19.39;100.00
9462;BME280;4769;42.660;23.262;2023-06-04T06:28:28;94301.00;;;19.28;100.00
9462;BME280;4769;42.660;23.262;2023-06-04T06:30:54;94300.06;;;19.38;100.00
9462;BME280;4769;42.660;23.262;2023-06-04T06:33:20;94301.56;;;19.62;100.00
9462;BME280;4769;42.660;23.262;2023-06-04T06:35:45;94293.31;;;19.77;100.00
9462;BME280;4769;42.660;23.262;2023-06-04T06:38:11;94306.06;;;19.99;99.85
9462;BME280;4769;42.660;23.262;2023-06-04T06:40:37;94301.41;;;20.04;97.86
9462;BME280;4769;42.660;23.262;2023-06-04T06:43:03;94297.84;;;19.77;96.81
9462;BME280;4769;42.660;23.262;2023-06-04T06:45:31;94302.00;;;19.69;98.04
9462;BME280;4769;42.660;23.262;2023-06-04T06:47:57;94305.91;;;19.90;98.18
9462;BME280;4769;42.660;23.262;2023-06-04T06:50:22;94304.38;;;20.03;97.77
9462;BME280;4769;42.660;23.262;2023-06-04T06:52:49;94299.63;;;20.32;96.57
9462;BME280;4769;42.660;23.262;2023-06-04T06:55:14;94300.22;;;20.42;94.71
9462;BME280;4769;42.660;23.262;2023-06-04T06:57:40;94313.72;;;20.64;93.70
9462;BME280;4769;42.660;23.262;2023-06-04T07:00:07;94307.97;;;20.71;93.46
9462;BME280;4769;42.660;23.262;2023-06-04T07:02:36;94310.16;;;20.69;92.63
9462;BME280;4769;42.660;23.262;2023-06-04T07:05:02;94311.38;;;20.63;91.92
9462;BME280;4769;42.660;23.262;2023-06-04T07:07:27;94312.66;;;20.79;91.07
9462;BME280;4769;42.660;23.262;2023-06-04T07:09:53;94313.53;;;20.74;91.26
9462;BME280;4769;42.660;23.262;2023-06-04T07:12:19;94326.94;;;20.61;90.77
9462;BME280;4769;42.660;23.262;2023-06-04T07:14:44;94326.44;;;20.59;91.61
9462;BME280;4769;42.660;23.262;2023-06-04T07:17:10;94332.66;;;20.54;92.53
9462;BME280;4769;42.660;23.262;2023-06-04T07:19:38;94331.22;;;20.75;91.43
9462;BME280;4769;42.660;23.262;2023-06-04T07:22:04;94327.97;;;20.92;90.59
9462;BME280;4769;42.660;23.262;2023-06-04T07:24:30;94339.16;;;20.80;90.94
9462;BME280;4769;42.660;23.262;2023-06-04T07:26:56;94332.22;;;21.06;88.97
9462;BME280;4769;42.660;23.262;2023-06-04T07:29:22;94334.28;;;21.36;88.14
9462;BME280;4769;42.660;23.262;2023-06-04T07:31:47;94337.66;;;21.64;87.01
9462;BME280;4769;42.660;23.262;2023-06-04T07:34:13;94337.34;;;21.79;86.21
9462;BME280;4769;42.660;23.262;2023-06-04T07:36:41;94341.22;;;21.37;87.77
9462;BME280;4769;42.660;23.262;2023-06-04T07:39:07;94347.88;;;21.40;87.48
9462;BME280;4769;42.660;23.262;2023-06-04T07:41:33;94343.91;;;21.37;86.86
9462;BME280;4769;42.660;23.262;2023-06-04T07:43:58;94348.38;;;21.28;87.93
9462;BME280;4769;42.660;23.262;2023-06-04T07:46:24;94352.28;;;21.22;88.41
9462;BME280;4769;42.660;23.262;2023-06-04T07:48:50;94347.09;;;21.26;88.23
9462;BME280;4769;42.660;23.262;2023-06-04T07:51:15;94360.75;;;21.51;87.54
9462;BME280;4769;42.660;23.262;2023-06-04T07:53:44;94354.75;;;21.05;88.73
9462;BME280;4769;42.660;23.262;2023-06-04T07:56:09;94358.22;;;21.19;89.10
9462;BME280;4769;42.660;23.262;2023-06-04T07:58:35;94361.97;;;21.45;88.10
9462;BME280;4769;42.660;23.262;2023-06-04T08:01:01;94357.97;;;21.56;87.92
9462;BME280;4769;42.660;23.262;2023-06-04T08:03:26;94358.81;;;21.79;87.95
9462;BME280;4769;42.660;23.262;2023-06-04T08:05:52;94351.41;;;21.98;86.45
9462;BME280;4769;42.660;23.262;2023-06-04T08:08:18;94360.97;;;22.12;86.06
9462;BME280;4769;42.660;23.262;2023-06-04T08:10:46;94363.25;;;22.19;85.43
9462;BME280;4769;42.660;23.262;2023-06-04T08:13:12;94350.41;;;22.16;84.29
9462;BME280;4769;42.660;23.262;2023-06-04T08:15:37;94357.16;;;22.27;84.34
9462;BME280;4769;42.660;23.262;2023-06-04T08:18:03;94357.44;;;22.25;83.90
9462;BME280;4769;42.660;23.262;2023-06-04T08:20:29;94352.63;;;22.36;83.55
9462;BME280;4769;42.660;23.262;2023-06-04T08:22:54;94360.22;;;22.64;83.68
9462;BME280;4769;42.660;23.262;2023-06-04T08:25:20;94360.06;;;22.61;84.39
9462;BME280;4769;42.660;23.262;2023-06-04T08:27:49;94368.16;;;22.69;82.62
9462;BME280;4769;42.660;23.262;2023-06-04T08:30:14;94360.63;;;22.80;81.70
9462;BME280;4769;42.660;23.262;2023-06-04T08:32:40;94369.91;;;22.65;81.73
9462;BME280;4769;42.660;23.262;2023-06-04T08:35:07;94367.94;;;22.57;81.99
9462;BME280;4769;42.660;23.262;2023-06-04T08:37:33;94364.16;;;22.58;81.71
9462;BME280;4769;42.660;23.262;2023-06-04T08:39:58;94367.16;;;22.57;81.80
9462;BME280;4769;42.660;23.262;2023-06-04T08:42:29;94365.13;;;22.40;82.53
9462;BME280;4769;42.660;23.262;2023-06-04T08:44:58;94364.28;;;22.31;82.75
9462;BME280;4769;42.660;23.262;2023-06-04T08:47:25;94385.53;;;21.97;82.86
9462;BME280;4769;42.660;23.262;2023-06-04T08:49:52;94386.53;;;21.88;83.76
9462;BME280;4769;42.660;23.262;2023-06-04T08:52:18;94379.41;;;21.83;83.79
9462;BME280;4769;42.660;23.262;2023-06-04T08:54:44;94378.03;;;21.59;82.98
9462;BME280;4769;42.660;23.262;2023-06-04T08:57:11;94377.16;;;21.50;83.55
9462;BME280;4769;42.660;23.262;2023-06-04T08:59:36;94382.22;;;21.51;81.28
9462;BME280;4769;42.660;23.262;2023-06-04T09:02:05;94384.13;;;21.37;82.97
9462;BME280;4769;42.660;23.262;2023-06-04T09:04:31;94395.16;;;21.49;82.00
9462;BME280;4769;42.660;23.262;2023-06-04T09:07:01;94393.72;;;21.65;82.06
9462;BME280;4769;42.660;23.262;2023-06-04T09:09:28;94388.34;;;21.65;81.31
9462;BME280;4769;42.660;23.262;2023-06-04T09:11:56;94389.66;;;21.68;82.01
9462;BME280;4769;42.660;23.262;2023-06-04T09:14:22;94390.06;;;21.75;81.72
9462;BME280;4769;42.660;23.262;2023-06-04T09:16:48;94396.72;;;21.77;81.51
9462;BME280;4769;42.660;23.262;2023-06-04T09:19:18;94392.84;;;21.56;82.33
9462;BME280;4769;42.660;23.262;2023-06-04T09:21:51;94383.78;;;21.79;83.20
9462;BME280;4769;42.660;23.262;2023-06-04T09:24:17;94374.41;;;22.12;79.07
9462;BME280;4769;42.660;23.262;2023-06-04T09:26:43;94390.13;;;22.41;77.93
9462;BME280;4769;42.660;23.262;2023-06-04T09:29:09;94379.25;;;22.68;76.95
9462;BME280;4769;42.660;23.262;2023-06-04T09:31:34;94384.19;;;23.13;73.81
9462;BME280;4769;42.660;23.262;2023-06-04T09:34:00;94382.47;;;23.17;73.42
9462;BME280;4769;42.660;23.262;2023-06-04T09:36:32;94384.38;;;23.73;72.57
9462;BME280;4769;42.660;23.262;2023-06-04T09:39:01;94387.91;;;23.99;71.28
9462;BME280;4769;42.660;23.262;2023-06-04T09:41:27;94382.81;;;24.49;70.21
9462;BME280;4769;42.660;23.262;2023-06-04T09:43:59;94385.00;;;24.72;68.46
9462;BME280;4769;42.660;23.262;2023-06-04T09:46:25;94364.31;;;24.93;67.81
9462;BME280;4769;42.660;23.262;2023-06-04T09:48:59;94370.97;;;25.33;66.90
9462;BME280;4769;42.660;23.262;2023-06-04T09:51:25;94366.03;;;24.98;66.16
9462;BME280;4769;42.660;23.262;2023-06-04T09:53:57;94372.78;;;25.29;65.59
9462;BME280;4769;42.660;23.262;2023-06-04T09:56:23;94367.81;;;25.60;64.30
9462;BME280;4769;42.660;23.262;2023-06-04T09:58:50;94362.03;;;25.99;63.20
9462;BME280;4769;42.660;23.262;2023-06-04T10:01:19;94356.63;;;26.52;62.04
9462;BME280;4769;42.660;23.262;2023-06-04T10:03:47;94352.44;;;27.32;59.80
9462;BME280;4769;42.660;23.262;2023-06-04T10:06:14;94366.28;;;27.42;60.13
9462;BME280;4769;42.660;23.262;2023-06-04T10:08:42;94356.25;;;27.43;57.86
9462;BME280;4769;42.660;23.262;2023-06-04T10:11:11;94349.03;;;26.66;58.92
9462;BME280;4769;42.660;23.262;2023-06-04T10:13:48;94357.56;;;26.36;60.30
9462;BME280;4769;42.660;23.262;2023-06-04T10:16:18;94353.09;;;26.60;60.39
9462;BME280;4769;42.660;23.262;2023-06-04T10:18:45;94350.81;;;26.62;61.05
9462;BME280;4769;42.660;23.262;2023-06-04T10:21:14;94361.38;;;26.55;60.56
9462;BME280;4769;42.660;23.262;2023-06-04T10:23:41;94355.78;;;26.60;60.07
9462;BME280;4769;42.660;23.262;2023-06-04T10:26:14;94358.81;;;26.06;63.02
9462;BME280;4769;42.660;23.262;2023-06-04T10:28:41;94350.09;;;26.21;62.92
9462;BME280;4769;42.660;23.262;2023-06-04T10:31:10;94353.84;;;26.08;61.92
9462;BME280;4769;42.660;23.262;2023-06-04T10:33:36;94359.91;;;26.05;61.42
9462;BME280;4769;42.660;23.262;2023-06-04T10:36:20;94343.84;;;25.59;61.97
9462;BME280;4769;42.660;23.262;2023-06-04T10:38:49;94361.78;;;25.26;63.38
9462;BME280;4769;42.660;23.262;2023-06-04T10:41:19;94359.44;;;25.16;65.08
9462;BME280;4769;42.660;23.262;2023-06-04T10:43:45;94350.59;;;24.61;65.84
9462;BME280;4769;42.660;23.262;2023-06-04T10:46:12;94357.75;;;24.48;66.51
9462;BME280;4769;42.660;23.262;2023-06-04T10:48:49;94365.53;;;24.41;66.96
9462;BME280;4769;42.660;23.262;2023-06-04T10:51:30;94357.84;;;24.77;66.08
9462;BME280;4769;42.660;23.262;2023-06-04T10:53:56;94351.38;;;24.70;65.79
9462;BME280;4769;42.660;23.262;2023-06-04T10:56:31;94360.53;;;24.77;66.49
9462;BME280;4769;42.660;23.262;2023-06-04T10:58:57;94351.72;;;24.60;66.00
9462;BME280;4769;42.660;23.262;2023-06-04T11:01:27;94349.78;;;24.52;66.56
9462;BME280;4769;42.660;23.262;2023-06-04T11:03:53;94347.09;;;24.69;67.02
9462;BME280;4769;42.660;23.262;2023-06-04T11:06:21;94350.59;;;24.52;67.56
9462;BME280;4769;42.660;23.262;2023-06-04T11:09:02;94357.16;;;24.00;69.54
9462;BME280;4769;42.660;23.262;2023-06-04T11:11:31;94361.09;;;24.45;67.89
9462;BME280;4769;42.660;23.262;2023-06-04T11:14:07;94341.78;;;24.89;66.27
9462;BME280;4769;42.660;23.262;2023-06-04T11:16:33;94348.19;;;25.51;64.03
9462;BME280;4769;42.660;23.262;2023-06-04T11:19:00;94353.94;;;25.70;63.89
9462;BME280;4769;42.660;23.262;2023-06-04T11:21:26;94351.63;;;25.81;63.70
9462;BME280;4769;42.660;23.262;2023-06-04T11:23:57;94347.44;;;25.71;63.53
9462;BME280;4769;42.660;23.262;2023-06-04T11:26:34;94347.16;;;25.64;63.83
9462;BME280;4769;42.660;23.262;2023-06-04T11:29:01;94339.56;;;25.58;63.43
9462;BME280;4769;42.660;23.262;2023-06-04T11:31:27;94342.41;;;25.61;64.03
9462;BME280;4769;42.660;23.262;2023-06-04T11:33:53;94355.00;;;25.78;64.06
9462;BME280;4769;42.660;23.262;2023-06-04T11:36:27;94333.88;;;25.22;65.57
9462;BME280;4769;42.660;23.262;2023-06-04T11:38:59;94341.88;;;25.10;66.13
9462;BME280;4769;42.660;23.262;2023-06-04T11:41:28;94337.91;;;24.61;66.37
9462;BME280;4769;42.660;23.262;2023-06-04T11:44:02;94352.38;;;24.40;68.62
9462;BME280;4769;42.660;23.262;2023-06-04T11:46:28;94344.00;;;24.16;68.81
9462;BME280;4769;42.660;23.262;2023-06-04T11:48:55;94341.63;;;24.31;68.80
9462;BME280;4769;42.660;23.262;2023-06-04T11:51:29;94347.00;;;24.14;69.84
9462;BME280;4769;42.660;23.262;2023-06-04T11:53:58;94343.19;;;24.24;68.69
9462;BME280;4769;42.660;23.262;2023-06-04T11:56:25;94354.44;;;24.34;70.17
9462;BME280;4769;42.660;23.262;2023-06-04T11:58:53;94354.59;;;24.29;70.34
9462;BME280;4769;42.660;23.262;2023-06-04T12:01:26;94359.47;;;24.44;70.28
9462;BME280;4769;42.660;23.262;2023-06-04T12:03:52;94351.88;;;24.55;70.66
9462;BME280;4769;42.660;23.262;2023-06-04T12:06:39;94355.25;;;24.35;73.97
9462;BME280;4769;42.660;23.262;2023-06-04T12:09:07;94353.69;;;23.91;79.07
9462;BME280;4769;42.660;23.262;2023-06-04T12:11:34;94362.50;;;23.74;81.37
9462;BME280;4769;42.660;23.262;2023-06-04T12:14:03;94358.81;;;23.53;82.88
9462;BME280;4769;42.660;23.262;2023-06-04T12:16:32;94361.28;;;23.24;86.82
9462;BME280;4769;42.660;23.262;2023-06-04T12:19:10;94369.78;;;23.57;85.30
9462;BME280;4769;42.660;23.262;2023-06-04T12:21:38;94363.81;;;23.21;87.09
9462;BME280;4769;42.660;23.262;2023-06-04T12:24:08;94363.22;;;22.93;88.02
9462;BME280;4769;42.660;23.262;2023-06-04T12:26:34;94353.75;;;22.96;89.31
9462;BME280;4769;42.660;23.262;2023-06-04T12:29:01;94353.03;;;23.12;89.33
9462;BME280;4769;42.660;23.262;2023-06-04T12:31:32;94354.03;;;23.25;90.53
9462;BME280;4769;42.660;23.262;2023-06-04T12:34:06;94362.31;;;23.45;88.91
9462;BME280;4769;42.660;23.262;2023-06-04T12:36:36;94355.56;;;23.17;90.92
9462;BME280;4769;42.660;23.262;2023-06-04T12:39:06;94359.47;;;23.50;89.07
9462;BME280;4769;42.660;23.262;2023-06-04T12:41:38;94356.47;;;23.60;89.67
9462;BME280;4769;42.660;23.262;2023-06-04T12:44:15;94349.16;;;23.52;91.80
9462;BME280;4769;42.660;23.262;2023-06-04T12:46:51;94356.13;;;23.53;91.20
9462;BME280;4769;42.660;23.262;2023-06-04T12:49:18;94347.25;;;23.44;90.64
9462;BME280;4769;42.660;23.262;2023-06-04T12:51:44;94351.50;;;22.89;93.54
9462;BME280;4769;42.660;23.262;2023-06-04T12:54:17;94350.69;;;22.89;92.08
9462;BME280;4769;42.660;23.262;2023-06-04T12:56:44;94354.88;;;23.03;92.20
9462;BME280;4769;42.660;23.262;2023-06-04T12:59:09;94352.41;;;22.85;91.30
9462;BME280;4769;42.660;23.262;2023-06-04T13:01:35;94352.59;;;22.88;91.89
9462;BME280;4769;42.660;23.262;2023-06-04T13:04:04;94361.59;;;22.84;88.75